AEDT,Max TemperatureF,Mean TemperatureF,Min TemperatureF,Max Dew PointF,MeanDew PointF,Min DewpointF,Max Humidity, Mean Humidity, Min Humidity, Max Sea Level PressureIn, Mean Sea Level PressureIn, Min Sea Level PressureIn, Max VisibilityMiles, Mean VisibilityMiles, Min VisibilityMiles, Max Wind SpeedMPH, Mean Wind SpeedMPH, Max Gust SpeedMPH,PrecipitationIn, CloudCover, Events, WindDirDegrees
2012-10-1,62,53,44,48,45,41,94,75,36,30.51,30.43,30.36,19,7,4,17,10,,0.00,5,Rain,224
2012-10-2,73,60,47,52,48,45,94,74,36,30.52,30.44,30.33,19,8,6,16,5,,0.00,4,,271
2012-10-3,78,62,45,48,44,36,100,54,15,30.34,30.19,30.04,19,11,6,20,13,31,0.00,,,349
2012-10-4,85,70,54,54,39,21,88,43,5,30.01,29.91,29.80,9,6,5,26,18,43,0.00,6,,322
2012-10-5,62,54,46,50,44,37,93,66,36,30.16,30.05,29.98,16,7,6,16,9,,0.00,4,,210
2012-10-6,53,48,41,46,43,39,100,78,55,30.12,30.05,29.98,14,7,4,16,9,,0.12,6,Rain,186
2012-10-7,58,49,40,46,42,38,93,76,43,30.15,30.10,30.06,19,8,6,16,11,,0.00,5,Rain,220
2012-10-8,58,48,39,46,41,36,93,73,33,30.10,30.02,29.95,19,7,6,14,7,,0.00,5,,233
2012-10-9,60,49,38,48,41,34,100,72,28,30.00,29.93,29.86,19,7,3,16,7,,0.16,4,Rain,257
2012-10-10,59,50,40,45,38,32,93,66,27,29.92,29.84,29.74,19,8,6,13,9,,0.04,5,Rain,271
2012-10-11,53,47,41,45,42,39,94,83,57,30.06,29.87,29.77,19,7,2,21,12,,0.12,6,Rain,203
2012-10-12,57,52,46,48,43,36,100,76,38,30.19,30.12,30.06,16,7,4,21,11,,0.01,6,Rain,219
2012-10-13,60,54,47,52,47,41,100,81,46,30.26,30.19,30.15,19,7,3,16,9,,0.20,6,Rain,238
2012-10-14,71,56,41,48,44,39,100,64,25,30.28,30.21,30.12,19,8,6,17,8,,0.00,3,,325
2012-10-15,78,64,50,50,45,32,94,52,13,30.15,30.03,29.92,19,12,6,34,20,47,0.00,,Rain,2
2012-10-16,68,58,47,54,46,39,94,65,29,30.02,29.90,29.80,19,10,6,25,10,38,0.00,5,Rain,316
2012-10-17,60,51,42,46,41,37,87,67,38,30.21,30.12,30.04,19,8,6,18,11,,0.00,5,,234
2012-10-18,69,56,42,48,45,41,100,69,29,30.21,30.10,30.01,16,9,6,10,5,,0.00,5,,315
2012-10-19,81,65,49,52,47,44,88,60,18,30.02,29.88,29.77,19,9,6,26,11,32,0.02,5,Rain-Thunderstorm,351
2012-10-20,70,60,50,54,49,45,94,69,29,30.01,29.95,29.92,19,8,6,16,8,,0.00,6,Rain,226
2012-10-21,65,54,44,51,41,30,93,63,17,30.12,30.04,29.98,19,8,6,26,14,41,0.00,5,Rain,243
2012-10-22,64,53,42,46,41,36,93,66,28,30.30,30.21,30.09,16,8,6,18,10,,0.01,4,Rain,205
2012-10-23,71,55,39,43,36,28,93,48,13,30.27,30.19,30.09,19,18,16,29,14,37,0.00,8,,4
2012-10-24,69,62,55,46,40,33,52,39,25,30.09,29.99,29.83,19,19,19,36,21,46,0.00,8,,6
2012-10-25,69,60,51,50,44,37,82,51,28,30.02,29.82,29.62,19,8,6,30,19,39,0.00,6,Rain,279
2012-10-26,59,52,44,50,43,37,94,71,38,30.08,29.95,29.89,19,7,3,23,12,33,0.12,5,Rain,241
2012-10-27,57,50,43,46,42,36,87,69,38,30.26,30.16,30.06,19,8,6,16,12,,0.00,6,,206
2012-10-28,63,56,48,46,45,43,87,69,39,30.29,30.24,30.18,19,9,6,14,7,,0.00,5,,185
2012-10-29,82,62,43,55,46,36,93,62,14,30.23,30.09,29.98,19,14,12,20,8,32,0.00,,,334
2012-10-30,88,70,51,50,40,21,88,38,5,30.00,29.92,29.86,19,17,12,23,13,20,0.00,,,340
2012-10-31,86,74,61,52,42,25,64,33,11,29.92,29.83,29.77,19,17,6,33,17,45,0.00,8,Rain,345